Airfield :







YOU CAN JOIN US ON...

 
LOGIN :

Register | Disclaimer

   EN    FR    IT 

 









Legend :    VFR   Marginal VFR   IFR   Intensive IFR   Very Intensive IFR
Visi :
Ceiling :
>= 8 km
>= 3000ft
5 to 8 km
1000 to 3000 ft
1500m to 5 km
500 to 1000 ft
800 to 1500m
200 to 500 ft
< 800m
< 200 ft
Symbols :   Thunderstorms  Fog  Heavy snow  Heavy precipitations  Wind > 20 kt






- Airport Elevation : 792 ft
- IATA code : YSC


CYSC - Sherbrooke

CURRENT METAR :
  • 172000Z AUTO 20011G17KT 9SM FEW033 BKN042 BKN060 BKN240 23/16 A3021 RMK SLP233 DENSITY ALT 1600FT

EXPIRED METARs :
  • 171900Z AUTO 20010G16KT 160V240 9SM BKN037 BKN048 24/17 A3023 RMK SLP239 DENSITY ALT 1700FT
  • 171800Z AUTO 24008G18KT 180V260 9SM FEW250 25/17 A3024 RMK SLP244 DENSITY ALT 1800FT
  • 171700Z AUTO 21008G16KT 9SM FEW034 SCT076 BKN250 23/16 A3026 RMK SLP251 DENSITY ALT 1600FT

TAF TAF CYSC
Valid from the 17 at 18:00 until the 18 at 03:00 UTC


171738Z 1718/1803 21008G18KT P6SM FEW030 BKN080
FM180100 18006KT P6SM SCT020
TEMPO 1801/1803 BKN020 RMK FCST BASED ON AUTO OBS. NXT FCST BY 180000Z
CZUL FIR / North America



MET'MAP, your aeronautical weather chart ! - Copyright ORBIFLY December 2007 - Disclaimer

ORBIFLY MET'MAP TEAM :

Programming & Development : Alexandra Zaïnal
Concept & original design : Baudouin d'Aumeries
Assistance for programming : Marc-Olivier Méhu
Technical & hardware support : Manuel Goepfert

Contact : metmap@orbifly.com




SOURCES & CREDITS :

   NOAA